createdAt,value
2023-02-11T00:01:37.702Z,99893.38
2023-02-11T00:04:05.072Z,99902.94
2023-02-11T00:06:32.248Z,99895.25
2023-02-11T00:08:58.835Z,99898.66
2023-02-11T00:11:26.530Z,99894.66
2023-02-11T00:13:53.063Z,99898.25
2023-02-11T00:16:20.338Z,99903.13
2023-02-11T00:18:46.986Z,99898.78
2023-02-11T00:21:15.241Z,99902.34
2023-02-11T00:23:41.942Z,99895.44
2023-02-11T00:26:24.468Z,99889.63
2023-02-11T00:28:51.093Z,99891.25
2023-02-11T00:31:18.498Z,99887.88
2023-02-11T00:33:45.714Z,99883.28
2023-02-11T00:36:17.462Z,99884.97
2023-02-11T00:38:44.543Z,99886.16
2023-02-11T00:41:11.741Z,99888.00
2023-02-11T00:43:38.221Z,99886.09
2023-02-11T00:46:04.832Z,99883.41
2023-02-11T00:48:31.408Z,99881.63
2023-02-11T00:50:58.281Z,99872.06
2023-02-11T00:53:25.085Z,99877.44
2023-02-11T00:55:51.906Z,99869.50
2023-02-11T00:58:18.580Z,99877.28
2023-02-11T01:00:45.060Z,99876.56
2023-02-11T01:03:11.601Z,99872.47
2023-02-11T01:05:38.188Z,99872.19
2023-02-11T01:08:05.078Z,99878.34
2023-02-11T01:10:31.744Z,99874.66
2023-02-11T01:12:58.272Z,99873.69
2023-02-11T01:15:24.782Z,99882.69
2023-02-11T01:17:51.394Z,99878.25
2023-02-11T01:20:21.432Z,99874.13
2023-02-11T01:22:48.003Z,99879.25
2023-02-11T01:25:14.577Z,99868.72
2023-02-11T01:27:41.125Z,99869.47
2023-02-11T01:30:08.611Z,99866.91
2023-02-11T01:32:35.219Z,99842.34
2023-02-11T01:35:01.727Z,99838.75
2023-02-11T01:37:28.302Z,99833.44
2023-02-11T01:39:55.006Z,99832.81
2023-02-11T01:42:23.265Z,99845.78
2023-02-11T01:44:51.416Z,99851.00
2023-02-11T01:47:18.951Z,99828.41
2023-02-11T01:49:47.703Z,99832.59
2023-02-11T01:52:30.743Z,99825.59
2023-02-11T01:55:19.272Z,99815.78
2023-02-11T01:57:48.017Z,99807.91
2023-02-11T02:00:14.651Z,99798.44
2023-02-11T02:02:46.481Z,99805.22
2023-02-11T02:05:34.311Z,99800.78
2023-02-11T02:08:11.741Z,99787.41
2023-02-11T02:10:38.494Z,99792.47
2023-02-11T02:13:04.970Z,99784.19
2023-02-11T02:15:35.386Z,99787.66
2023-02-11T02:18:03.217Z,99780.88
2023-02-11T02:20:56.634Z,99788.19
2023-02-11T02:23:25.783Z,99777.44
2023-02-11T02:26:10.977Z,99786.75
2023-02-11T02:29:02.741Z,99786.91
2023-02-11T02:31:41.367Z,99783.56
2023-02-11T02:34:15.959Z,99791.06
2023-02-11T02:37:01.919Z,99793.38
2023-02-11T02:39:31.068Z,99788.41
2023-02-11T02:41:57.590Z,99790.09
2023-02-11T02:44:24.073Z,99796.59
2023-02-11T02:46:50.725Z,99800.22
2023-02-11T02:49:17.293Z,99804.19
2023-02-11T02:52:21.465Z,99801.50
2023-02-11T02:55:06.450Z,99802.28
2023-02-11T02:57:45.888Z,99798.72
2023-02-11T03:00:37.578Z,99795.94
2023-02-11T03:03:27.438Z,99788.84
2023-02-11T03:06:08.849Z,99788.59
2023-02-11T03:08:42.383Z,99795.34
2023-02-11T03:11:09.704Z,99801.75
2023-02-11T03:13:36.707Z,99783.75
2023-02-11T03:16:09.836Z,99783.53
2023-02-11T03:18:36.856Z,99795.31
2023-02-11T03:21:03.447Z,99782.81
2023-02-11T03:23:35.860Z,99775.81
2023-02-11T03:26:14.855Z,99760.81
2023-02-11T03:29:08.386Z,99759.56
2023-02-11T03:31:50.979Z,99764.00
2023-02-11T03:34:38.351Z,99769.19
2023-02-11T03:37:32.784Z,99772.91
2023-02-11T03:40:08.450Z,99765.94
2023-02-11T03:42:46.512Z,99777.59
2023-02-11T03:45:15.582Z,99776.69
2023-02-11T03:47:45.684Z,99760.84
2023-02-11T03:50:12.592Z,99768.03
2023-02-11T03:52:39.220Z,99776.00
2023-02-11T03:55:11.238Z,99776.84
2023-02-11T03:57:37.963Z,99769.25
2023-02-11T04:00:05.091Z,99772.94
2023-02-11T04:02:33.687Z,99766.47
2023-02-11T04:05:00.408Z,99771.25
2023-02-11T04:07:27.071Z,99775.22
2023-02-11T04:09:53.625Z,99777.75
2023-02-11T04:12:20.140Z,99771.47
2023-02-11T04:14:46.707Z,99772.31
2023-02-11T04:17:13.219Z,99760.06
2023-02-11T04:19:39.781Z,99768.66
2023-02-11T04:22:06.395Z,99765.25
2023-02-11T04:24:32.856Z,99764.09
2023-02-11T04:26:59.334Z,99761.22
2023-02-11T04:29:25.897Z,99756.16
2023-02-11T04:31:52.422Z,99739.56
2023-02-11T04:34:18.921Z,99742.84
2023-02-11T04:36:45.609Z,99746.09
2023-02-11T04:39:12.094Z,99735.59
2023-02-11T04:41:38.576Z,99725.75
2023-02-11T04:44:05.301Z,99730.84
2023-02-11T04:46:31.859Z,99737.75
2023-02-11T04:48:58.384Z,99735.72
2023-02-11T04:51:24.946Z,99735.97
2023-02-11T04:53:51.458Z,99741.31
2023-02-11T04:56:17.962Z,99733.56
2023-02-11T04:58:44.484Z,99726.72
2023-02-11T05:01:12.798Z,99717.84
2023-02-11T05:03:39.318Z,99726.25
2023-02-11T05:06:06.257Z,99725.25
2023-02-11T05:08:32.934Z,99716.47
2023-02-11T05:10:59.518Z,99732.09
2023-02-11T05:13:26.075Z,99731.16
2023-02-11T05:15:52.909Z,99722.38
2023-02-11T05:18:19.557Z,99721.59
2023-02-11T05:20:46.096Z,99726.00
2023-02-11T05:23:12.601Z,99732.09
2023-02-11T05:25:39.133Z,99730.38
2023-02-11T05:28:05.954Z,99731.03
2023-02-11T05:30:32.565Z,99731.84
2023-02-11T05:32:59.050Z,99735.97
2023-02-11T05:35:25.559Z,99733.19
2023-02-11T05:37:52.118Z,99722.66
2023-02-11T05:40:18.595Z,99716.59
2023-02-11T05:42:45.132Z,99708.59
2023-02-11T05:45:11.685Z,99691.06
2023-02-11T05:47:38.152Z,99699.63
2023-02-11T05:50:04.754Z,99693.50
2023-02-11T05:52:31.232Z,99694.22
2023-02-11T05:54:57.932Z,99700.28
2023-02-11T05:57:24.478Z,99694.88
2023-02-11T05:59:50.936Z,99682.88
2023-02-11T06:02:17.433Z,99687.13
2023-02-11T06:04:44.383Z,99698.19
2023-02-11T06:07:10.863Z,99704.03
2023-02-11T06:09:37.741Z,99698.66
2023-02-11T06:12:04.486Z,99707.28
2023-02-11T06:14:33.547Z,99708.13
2023-02-11T06:17:00.302Z,99705.59
2023-02-11T06:19:26.999Z,99705.41
2023-02-11T06:21:53.530Z,99686.34
2023-02-11T06:24:38.413Z,99668.88
2023-02-11T06:27:06.526Z,99677.44
2023-02-11T06:29:33.076Z,99651.72
2023-02-11T06:31:59.641Z,99674.75
2023-02-11T06:34:26.179Z,99683.28
2023-02-11T06:36:52.643Z,99687.59
2023-02-11T06:39:19.208Z,99686.47
2023-02-11T06:41:45.742Z,99688.81
2023-02-11T06:44:12.263Z,99692.25
2023-02-11T06:46:38.793Z,99683.81
2023-02-11T06:49:05.375Z,99678.59
2023-02-11T06:51:31.872Z,99667.28
2023-02-11T06:53:58.411Z,99687.13
2023-02-11T06:56:27.369Z,99691.34
2023-02-11T06:58:55.397Z,99704.28
2023-02-11T07:01:22.374Z,99709.50
2023-02-11T07:03:48.906Z,99701.47
2023-02-11T07:06:17.098Z,99703.81
2023-02-11T07:08:45.804Z,99688.06
2023-02-11T07:11:13.931Z,99686.50
2023-02-11T07:13:40.448Z,99688.34
2023-02-11T07:16:07.623Z,99687.44
2023-02-11T07:18:34.162Z,99677.72
2023-02-11T07:21:04.069Z,99682.06
2023-02-11T07:23:30.535Z,99674.00
2023-02-11T07:25:57.133Z,99643.38
2023-02-11T07:28:23.642Z,99664.19
2023-02-11T07:30:50.177Z,99670.13
2023-02-11T07:33:16.738Z,99672.41
2023-02-11T07:35:43.252Z,99669.63
2023-02-11T07:38:09.814Z,99677.47
2023-02-11T07:40:36.626Z,99683.16
2023-02-11T07:43:03.168Z,99677.50
2023-02-11T07:45:29.677Z,99679.03
2023-02-11T07:47:56.201Z,99691.19
2023-02-11T07:50:22.701Z,99692.78
2023-02-11T07:52:49.212Z,99703.94
2023-02-11T07:55:15.768Z,99702.00
2023-02-11T07:57:42.314Z,99694.03
2023-02-11T08:00:09.357Z,99699.09
2023-02-11T08:02:35.905Z,99693.94
2023-02-11T08:05:02.474Z,99690.22
2023-02-11T08:07:29.659Z,99695.09
2023-02-11T08:09:56.263Z,99694.91
2023-02-11T08:12:22.793Z,99687.09
2023-02-11T08:14:49.275Z,99680.69
2023-02-11T08:17:15.807Z,99685.69
2023-02-11T08:19:42.454Z,99682.34
2023-02-11T08:22:08.919Z,99690.03
2023-02-11T08:24:35.489Z,99685.22
2023-02-11T08:27:02.004Z,99676.00
2023-02-11T08:29:28.498Z,99667.31
2023-02-11T08:31:55.231Z,99668.44
2023-02-11T08:34:21.988Z,99667.53
2023-02-11T08:36:48.654Z,99667.28
2023-02-11T08:39:20.768Z,99685.59
2023-02-11T08:41:52.353Z,99684.72
2023-02-11T08:44:19.560Z,99693.22
2023-02-11T08:46:46.338Z,99703.97
2023-02-11T08:49:12.862Z,99705.88
2023-02-11T08:51:39.388Z,99719.25
2023-02-11T08:54:09.455Z,99714.66
2023-02-11T08:56:36.809Z,99709.66
2023-02-11T08:59:03.384Z,99696.41
2023-02-11T09:01:30.630Z,99702.94
2023-02-11T09:03:57.978Z,99707.28
2023-02-11T09:06:25.005Z,99703.88
2023-02-11T09:08:53.058Z,99696.53
2023-02-11T09:11:21.210Z,99693.91
2023-02-11T09:13:47.925Z,99693.09
2023-02-11T09:16:22.486Z,99687.84
2023-02-11T09:18:49.254Z,99674.56
2023-02-11T09:21:16.154Z,99691.69
2023-02-11T09:23:44.679Z,99703.75
2023-02-11T09:26:20.165Z,99697.66
2023-02-11T09:28:47.069Z,99680.91
2023-02-11T09:31:15.558Z,99673.19
2023-02-11T09:33:48.146Z,99692.41
2023-02-11T09:36:19.489Z,99684.66
2023-02-11T09:38:46.266Z,99693.38
2023-02-11T09:41:40.877Z,99689.69
2023-02-11T09:44:09.578Z,99681.19
2023-02-11T09:46:37.950Z,99679.19
2023-02-11T09:49:04.971Z,99687.84
2023-02-11T09:51:40.466Z,99685.69
2023-02-11T09:54:34.672Z,99689.78
2023-02-11T09:57:01.274Z,99690.09
2023-02-11T09:59:27.755Z,99690.22
2023-02-11T10:02:04.777Z,99685.38
2023-02-11T10:04:45.540Z,99692.84
2023-02-11T10:07:25.300Z,99698.94
2023-02-11T10:10:15.416Z,99704.00
2023-02-11T10:12:52.993Z,99703.34
2023-02-11T10:15:44.567Z,99692.56
2023-02-11T10:18:48.565Z,99694.81
2023-02-11T10:21:15.014Z,99705.50
2023-02-11T10:23:43.411Z,99699.53
2023-02-11T10:26:15.059Z,99678.75
2023-02-11T10:28:43.851Z,99679.66
2023-02-11T10:31:16.198Z,99675.91
2023-02-11T10:33:44.151Z,99679.38
2023-02-11T10:36:14.217Z,99677.69
2023-02-11T10:38:40.783Z,99679.94
2023-02-11T10:41:10.533Z,99672.25
2023-02-11T10:43:37.023Z,99673.69
2023-02-11T10:46:03.656Z,99667.53
2023-02-11T10:48:51.375Z,99666.16
2023-02-11T10:51:27.673Z,99657.34
2023-02-11T10:54:21.111Z,99651.53
2023-02-11T10:56:55.181Z,99641.03
2023-02-11T10:59:28.341Z,99653.38
2023-02-11T11:02:06.332Z,99649.66
2023-02-11T11:04:45.325Z,99645.66
2023-02-11T11:07:13.167Z,99635.47
2023-02-11T11:10:00.313Z,99638.59
2023-02-11T11:12:44.908Z,99631.16
2023-02-11T11:15:11.305Z,99636.19
2023-02-11T11:17:38.031Z,99633.97
2023-02-11T11:20:27.546Z,99635.97
2023-02-11T11:23:08.462Z,99615.97
2023-02-11T11:25:34.953Z,99614.41
2023-02-11T11:28:01.495Z,99614.94
2023-02-11T11:30:33.235Z,99624.84
2023-02-11T11:33:00.024Z,99622.13
2023-02-11T11:35:30.329Z,99626.69
2023-02-11T11:38:02.025Z,99637.38
2023-02-11T11:40:33.081Z,99632.50
2023-02-11T11:43:05.576Z,99633.13
2023-02-11T11:45:32.050Z,99616.16
2023-02-11T11:48:10.408Z,99617.38
2023-02-11T11:50:48.916Z,99612.13
2023-02-11T11:53:40.303Z,99601.28
2023-02-11T11:56:16.151Z,99612.09
2023-02-11T11:58:42.656Z,99606.84
2023-02-11T12:01:28.006Z,99593.84
2023-02-11T12:04:18.537Z,99588.09
2023-02-11T12:07:00.983Z,99580.91
2023-02-11T12:09:37.349Z,99579.63
2023-02-11T12:12:16.827Z,99582.19
2023-02-11T12:14:55.350Z,99595.97
2023-02-11T12:17:38.985Z,99591.63
2023-02-11T12:20:33.348Z,99582.44
2023-02-11T12:23:27.160Z,99573.94
2023-02-11T12:26:26.341Z,99571.91
2023-02-11T12:29:11.354Z,99580.84
2023-02-11T12:31:47.300Z,99585.06
2023-02-11T12:34:32.073Z,99573.53
2023-02-11T12:37:08.158Z,99559.41
2023-02-11T12:39:45.452Z,99549.84
2023-02-11T12:42:49.507Z,99541.19
2023-02-11T12:45:42.796Z,99537.81
2023-02-11T12:48:13.044Z,99545.47
2023-02-11T12:51:14.770Z,99541.16
2023-02-11T12:53:47.377Z,99528.19
2023-02-11T12:56:22.157Z,99538.59
2023-02-11T12:58:48.969Z,99538.97
2023-02-11T13:01:50.558Z,99536.59
2023-02-11T13:04:37.090Z,99534.38
2023-02-11T13:07:32.359Z,99532.00
2023-02-11T13:10:02.671Z,99531.81
2023-02-11T13:12:48.348Z,99523.38
2023-02-11T13:15:15.039Z,99531.53
2023-02-11T13:17:49.734Z,99529.38
2023-02-11T13:20:37.023Z,99533.75
2023-02-11T13:23:18.790Z,99528.00
2023-02-11T13:26:10.989Z,99520.09
2023-02-11T13:28:48.774Z,99528.94
2023-02-11T13:31:16.834Z,99524.34
2023-02-11T13:33:44.335Z,99532.25
2023-02-11T13:36:13.055Z,99539.06
2023-02-11T13:38:39.611Z,99542.97
2023-02-11T13:41:17.135Z,99541.44
2023-02-11T13:43:43.697Z,99544.19
2023-02-11T13:46:13.779Z,99538.59
2023-02-11T13:48:46.341Z,99531.53
2023-02-11T13:51:14.985Z,99536.91
2023-02-11T13:53:51.411Z,99532.22
2023-02-11T13:56:32.659Z,99543.91
2023-02-11T13:59:02.118Z,99541.44
2023-02-11T14:02:06.973Z,99535.34
2023-02-11T14:04:52.596Z,99535.63
2023-02-11T14:07:48.457Z,99538.69
2023-02-11T14:10:43.108Z,99527.63
2023-02-11T14:13:33.053Z,99532.13
2023-02-11T14:16:17.116Z,99533.25
2023-02-11T14:18:51.874Z,99526.75
2023-02-11T14:21:27.343Z,99526.28
2023-02-11T14:23:55.939Z,99520.06
2023-02-11T14:27:01.671Z,99525.63
2023-02-11T14:29:46.180Z,99527.00
2023-02-11T14:32:47.689Z,99526.94
2023-02-11T14:35:36.512Z,99527.94
2023-02-11T14:38:26.217Z,99532.06
2023-02-11T14:41:05.680Z,99527.56
2023-02-11T14:43:36.496Z,99517.22
2023-02-11T14:46:03.167Z,99519.84
2023-02-11T14:48:31.343Z,99518.81
2023-02-11T14:51:00.667Z,99511.00
2023-02-11T14:53:27.243Z,99533.78
2023-02-11T14:55:54.341Z,99531.31
2023-02-11T14:58:31.636Z,99526.22
2023-02-11T15:00:59.213Z,99523.94
2023-02-11T15:03:31.790Z,99523.94
2023-02-11T15:06:19.815Z,99523.53
2023-02-11T15:09:01.098Z,99521.63
2023-02-11T15:11:32.241Z,99531.50
2023-02-11T15:14:06.878Z,99523.84
2023-02-11T15:16:33.376Z,99513.88
2023-02-11T15:19:02.541Z,99517.06
2023-02-11T15:21:30.221Z,99515.88
2023-02-11T15:24:20.924Z,99524.69
2023-02-11T15:27:21.048Z,99524.69
2023-02-11T15:29:51.627Z,99534.63
2023-02-11T15:32:18.956Z,99529.59
2023-02-11T15:34:45.929Z,99531.22
2023-02-11T15:37:14.503Z,99531.63
2023-02-11T15:39:41.982Z,99537.59
2023-02-11T15:42:27.643Z,99532.41
2023-02-11T15:45:15.668Z,99517.31
2023-02-11T15:47:47.204Z,99525.59
2023-02-11T15:50:27.757Z,99537.66
2023-02-11T15:52:54.988Z,99533.69
2023-02-11T15:55:21.503Z,99540.22
2023-02-11T15:57:52.498Z,99536.16
2023-02-11T16:00:21.267Z,99539.38
2023-02-11T16:02:48.664Z,99540.22
2023-02-11T16:05:31.156Z,99553.13
2023-02-11T16:07:58.016Z,99547.88
2023-02-11T16:10:33.760Z,99547.72
2023-02-11T16:13:17.358Z,99552.19
2023-02-11T16:15:50.941Z,99552.53
2023-02-11T16:18:40.006Z,99548.53
2023-02-11T16:21:14.650Z,99551.41
2023-02-11T16:23:44.112Z,99553.28
2023-02-11T16:26:39.459Z,99552.41
2023-02-11T16:29:14.409Z,99566.09
2023-02-11T16:31:42.636Z,99577.84
2023-02-11T16:34:16.336Z,99577.69
2023-02-11T16:36:42.913Z,99576.59
2023-02-11T16:39:09.782Z,99574.25
2023-02-11T16:41:36.305Z,99573.31
2023-02-11T16:44:02.947Z,99579.19
2023-02-11T16:46:29.541Z,99579.19
2023-02-11T16:48:56.223Z,99581.41
2023-02-11T16:51:22.790Z,99583.78
2023-02-11T16:53:49.294Z,99598.59
2023-02-11T16:56:16.813Z,99592.47
2023-02-11T16:58:44.447Z,99606.34
2023-02-11T17:01:13.527Z,99601.41
2023-02-11T17:03:40.583Z,99598.78
2023-02-11T17:06:09.076Z,99600.72
2023-02-11T17:08:35.793Z,99597.00
2023-02-11T17:11:02.901Z,99612.63
2023-02-11T17:13:29.454Z,99627.63
2023-02-11T17:15:56.091Z,99634.81
2023-02-11T17:18:22.664Z,99627.75
2023-02-11T17:20:49.176Z,99622.38
2023-02-11T17:23:15.720Z,99623.13
2023-02-11T17:25:42.269Z,99632.13
2023-02-11T17:28:09.000Z,99631.94
2023-02-11T17:30:35.597Z,99631.09
2023-02-11T17:33:02.065Z,99638.75
2023-02-11T17:35:28.584Z,99641.31
2023-02-11T17:37:55.125Z,99633.13
2023-02-11T17:40:21.749Z,99628.88
2023-02-11T17:42:48.464Z,99631.03
2023-02-11T17:45:15.229Z,99633.94
2023-02-11T17:47:41.760Z,99635.31
2023-02-11T17:50:08.822Z,99647.03
2023-02-11T17:52:36.566Z,99645.66
2023-02-11T17:55:03.132Z,99652.34
2023-02-11T17:57:29.772Z,99652.19
2023-02-11T17:59:56.268Z,99655.44
2023-02-11T18:02:22.795Z,99660.41
2023-02-11T18:04:49.627Z,99655.28
2023-02-11T18:07:16.213Z,99651.19
2023-02-11T18:09:42.912Z,99660.50
2023-02-11T18:12:10.656Z,99654.63
2023-02-11T18:14:40.509Z,99652.16
2023-02-11T18:17:07.233Z,99658.34
2023-02-11T18:19:35.930Z,99662.88
2023-02-11T18:22:04.218Z,99656.63
2023-02-11T18:24:31.049Z,99658.91
2023-02-11T18:26:57.652Z,99664.88
2023-02-11T18:29:24.173Z,99665.00
2023-02-11T18:31:50.852Z,99661.75
2023-02-11T18:34:17.480Z,99658.03
2023-02-11T18:36:44.386Z,99647.38
2023-02-11T18:39:10.912Z,99661.44
2023-02-11T18:41:40.084Z,99673.38
2023-02-11T18:44:06.800Z,99669.50
2023-02-11T18:46:33.525Z,99669.41
2023-02-11T18:49:00.111Z,99675.94
2023-02-11T18:51:26.654Z,99674.69
2023-02-11T18:53:53.227Z,99683.34
2023-02-11T18:56:21.781Z,99662.47
2023-02-11T18:58:48.865Z,99674.25
2023-02-11T19:01:20.929Z,99672.38
2023-02-11T19:03:48.324Z,99674.75
2023-02-11T19:06:19.904Z,99672.97
2023-02-11T19:08:46.403Z,99685.09
2023-02-11T19:11:13.273Z,99680.44
2023-02-11T19:13:39.835Z,99680.53
2023-02-11T19:16:11.360Z,99672.84
2023-02-11T19:18:38.700Z,99671.84
2023-02-11T19:21:09.290Z,99676.16
2023-02-11T19:23:35.830Z,99685.47
2023-02-11T19:26:04.523Z,99696.41
2023-02-11T19:28:31.798Z,99702.66
2023-02-11T19:30:58.365Z,99699.53
2023-02-11T19:33:24.917Z,99703.53
2023-02-11T19:35:51.666Z,99699.97
2023-02-11T19:38:19.100Z,99699.16
2023-02-11T19:40:45.599Z,99698.97
2023-02-11T19:43:12.078Z,99700.31
2023-02-11T19:45:38.548Z,99693.00
2023-02-11T19:48:05.242Z,99693.00
2023-02-11T19:50:31.731Z,99693.00
2023-02-11T19:52:58.296Z,99697.66
2023-02-11T19:55:24.841Z,99690.38
2023-02-11T19:57:51.350Z,99692.09
2023-02-11T20:00:18.448Z,99691.38
2023-02-11T20:02:47.113Z,99681.91
2023-02-11T20:05:14.084Z,99677.81
2023-02-11T20:07:40.575Z,99678.25
2023-02-11T20:10:08.102Z,99680.88
2023-02-11T20:12:34.592Z,99679.81
2023-02-11T20:15:01.086Z,99669.94
2023-02-11T20:17:28.239Z,99675.09
2023-02-11T20:19:54.792Z,99675.28
2023-02-11T20:22:21.292Z,99681.41
2023-02-11T20:24:48.305Z,99676.47
2023-02-11T20:27:14.893Z,99673.78
2023-02-11T20:29:41.564Z,99668.16
2023-02-11T20:32:11.086Z,99671.00
2023-02-11T20:34:37.689Z,99682.47
2023-02-11T20:37:04.794Z,99686.94
2023-02-11T20:39:31.443Z,99681.06
2023-02-11T20:42:01.087Z,99680.91
2023-02-11T20:44:27.664Z,99691.41
2023-02-11T20:46:54.623Z,99685.72
2023-02-11T20:49:22.877Z,99687.03
2023-02-11T20:51:53.675Z,99686.16
2023-02-11T20:54:20.556Z,99691.81
2023-02-11T20:56:48.195Z,99688.69
2023-02-11T20:59:14.957Z,99683.03
2023-02-11T21:01:43.303Z,99676.75
2023-02-11T21:04:30.339Z,99689.81
2023-02-11T21:06:58.880Z,99689.78
2023-02-11T21:09:27.210Z,99685.94
2023-02-11T21:11:54.109Z,99686.84
2023-02-11T21:14:22.160Z,99679.28
2023-02-11T21:16:48.703Z,99679.84
2023-02-11T21:19:15.413Z,99681.94
2023-02-11T21:21:45.465Z,99679.97
2023-02-11T21:24:11.977Z,99684.31
2023-02-11T21:26:38.590Z,99688.19
2023-02-11T21:29:05.667Z,99692.59
2023-02-11T21:31:32.851Z,99686.56
2023-02-11T21:33:59.566Z,99687.31
2023-02-11T21:36:27.900Z,99693.03
2023-02-11T21:38:54.457Z,99707.28
2023-02-11T21:41:22.382Z,99714.75
2023-02-11T21:43:49.432Z,99717.38
2023-02-11T21:46:16.413Z,99714.50
2023-02-11T21:48:42.973Z,99715.59
2023-02-11T21:51:12.943Z,99717.50
2023-02-11T21:53:39.471Z,99718.69
2023-02-11T21:56:16.376Z,99725.91
2023-02-11T21:58:43.286Z,99730.97
2023-02-11T22:01:14.181Z,99722.59
2023-02-11T22:03:40.787Z,99729.50
2023-02-11T22:06:08.931Z,99729.88
2023-02-11T22:08:35.497Z,99727.53
2023-02-11T22:11:04.005Z,99729.31
2023-02-11T22:13:30.609Z,99737.03
2023-02-11T22:15:58.914Z,99730.22
2023-02-11T22:18:25.506Z,99726.75
2023-02-11T22:21:24.662Z,99721.50
2023-02-11T22:23:51.673Z,99730.25
2023-02-11T22:26:20.349Z,99723.88
2023-02-11T22:28:46.920Z,99721.22
2023-02-11T22:31:15.465Z,99733.47
2023-02-11T22:33:42.166Z,99728.56
2023-02-11T22:36:14.536Z,99732.59
2023-02-11T22:38:41.123Z,99734.06
2023-02-11T22:41:09.332Z,99732.69
2023-02-11T22:43:35.955Z,99740.09
2023-02-11T22:46:03.301Z,99742.50
2023-02-11T22:48:29.905Z,99732.75
2023-02-11T22:50:56.463Z,99731.44
2023-02-11T22:53:25.478Z,99725.44
2023-02-11T22:55:52.340Z,99730.91
2023-02-11T22:58:18.993Z,99733.38
2023-02-11T23:00:45.489Z,99733.84
2023-02-11T23:03:11.976Z,99723.72
2023-02-11T23:05:41.716Z,99730.91
2023-02-11T23:08:09.028Z,99720.75
2023-02-11T23:10:36.343Z,99738.41
2023-02-11T23:13:03.488Z,99746.78
2023-02-11T23:15:30.001Z,99743.53
2023-02-11T23:17:56.519Z,99750.78
2023-02-11T23:20:23.025Z,99752.34
2023-02-11T23:22:49.586Z,99743.66
2023-02-11T23:25:16.183Z,99742.22
2023-02-11T23:27:42.648Z,99748.63
2023-02-11T23:30:09.699Z,99749.41
2023-02-11T23:32:38.818Z,99750.94
2023-02-11T23:35:05.553Z,99742.28
2023-02-11T23:37:32.038Z,99745.28
2023-02-11T23:39:58.545Z,99747.63
2023-02-11T23:42:25.278Z,99750.94
2023-02-11T23:44:51.827Z,99745.53
2023-02-11T23:47:18.298Z,99739.66
2023-02-11T23:49:44.738Z,99740.22
2023-02-11T23:52:11.227Z,99739.00
2023-02-11T23:54:37.691Z,99743.81
2023-02-11T23:57:04.172Z,99744.38
2023-02-11T23:59:30.721Z,99749.41
